Time;durP1;ratioP1;P1;durP2;ratioP2;P2;SDS_P1;SDS_P2;PMS_P1;PMS_P2;Temp;Humidity;BMP_temperature;BMP_pressure;BME280_temperature;BME280_humidity;BME280_pressure;Samples;Min_cycle;Max_cycle;Signal;HPM_P1;HPM_P2
2022/09/14 00:00:15;;;;;;;0.05;0.05;;;;;;;;;;5034689;28;20383;-68
2022/09/14 00:02:45;;;;;;;0.10;0.10;;;;;;;;;;5058076;28;20460;-67
2022/09/14 00:05:11;;;;;;;0.00;0.00;;;;;;;;;;5034484;28;20433;-69
2022/09/14 00:07:38;;;;;;;0.10;0.10;;;;;;;;;;5057861;28;20266;-69
2022/09/14 00:10:04;;;;;;;0.00;0.00;;;;;;;;;;5043223;28;20276;-70
2022/09/14 00:12:31;;;;;;;0.10;0.10;;;;;;;;;;5057162;28;20589;-68
2022/09/14 00:14:57;;;;;;;0.00;0.00;;;;;;;;;;5043590;28;20205;-67
2022/09/14 00:17:24;;;;;;;0.10;0.10;;;;;;;;;;5048822;28;20243;-68
2022/09/14 00:19:52;;;;;;;0.00;0.00;;;;;;;;;;5043177;28;20402;-67
2022/09/14 00:22:18;;;;;;;0.10;0.10;;;;;;;;;;5048672;28;20570;-67
2022/09/14 00:24:45;;;;;;;0.10;0.10;;;;;;;;;;5042885;28;20225;-69
2022/09/14 00:27:11;;;;;;;0.10;0.10;;;;;;;;;;5048336;28;20278;-68
2022/09/14 00:29:37;;;;;;;0.10;0.10;;;;;;;;;;5042887;28;20275;-68
2022/09/14 00:32:04;;;;;;;0.08;0.08;;;;;;;;;;5048132;28;20311;-68
2022/09/14 00:34:30;;;;;;;0.10;0.10;;;;;;;;;;5042962;28;20237;-69
2022/09/14 00:36:58;;;;;;;0.10;0.10;;;;;;;;;;5047209;28;20302;-68
2022/09/14 00:39:26;;;;;;;0.10;0.10;;;;;;;;;;5043562;28;20205;-67
2022/09/14 00:41:53;;;;;;;0.00;0.00;;;;;;;;;;5046782;28;20263;-69
2022/09/14 00:44:39;;;;;;;0.05;0.05;;;;;;;;;;5044473;28;20205;-68
2022/09/14 00:47:05;;;;;;;0.00;0.00;;;;;;;;;;5048033;28;20384;-67
2022/09/14 00:49:34;;;;;;;0.00;0.00;;;;;;;;;;5042717;28;20236;-68
2022/09/14 00:52:07;;;;;;;0.03;0.03;;;;;;;;;;5047183;28;20294;-68
2022/09/14 00:54:34;;;;;;;0.00;0.00;;;;;;;;;;5042885;28;20260;-68
2022/09/14 00:57:02;;;;;;;0.10;0.10;;;;;;;;;;5047115;28;20315;-67
2022/09/14 00:59:30;;;;;;;0.10;0.10;;;;;;;;;;5042781;28;20267;-68
2022/09/14 01:01:56;;;;;;;0.10;0.10;;;;;;;;;;5046759;28;20479;-68
2022/09/14 01:04:22;;;;;;;0.10;0.10;;;;;;;;;;5043930;28;20207;-67
2022/09/14 01:06:53;;;;;;;0.00;0.00;;;;;;;;;;5046041;28;20239;-68
2022/09/14 01:09:28;;;;;;;0.10;0.10;;;;;;;;;;5044422;28;20220;-68
2022/09/14 01:11:58;;;;;;;0.10;0.10;;;;;;;;;;5046589;28;20250;-67
2022/09/14 01:14:30;;;;;;;0.10;0.10;;;;;;;;;;5043529;28;20400;-67
2022/09/14 01:16:59;;;;;;;0.10;0.10;;;;;;;;;;5046682;28;20269;-67
2022/09/14 01:19:31;;;;;;;0.00;0.00;;;;;;;;;;5043437;28;20212;-69
2022/09/14 01:22:01;;;;;;;0.00;0.00;;;;;;;;;;5046942;28;20467;-68
2022/09/14 01:24:37;;;;;;;0.05;0.05;;;;;;;;;;5043149;28;20239;-69
2022/09/14 01:27:24;;;;;;;0.08;0.08;;;;;;;;;;5047468;28;20469;-68
2022/09/14 01:29:56;;;;;;;0.10;0.10;;;;;;;;;;5042337;28;20200;-67
2022/09/14 01:32:26;;;;;;;0.00;0.00;;;;;;;;;;5047876;28;20317;-68
2022/09/14 01:34:55;;;;;;;0.03;0.03;;;;;;;;;;5042375;28;20207;-68
2022/09/14 01:37:24;;;;;;;0.10;0.10;;;;;;;;;;5047850;28;20319;-67
2022/09/14 01:39:53;;;;;;;0.00;0.00;;;;;;;;;;5041994;28;20205;-68
2022/09/14 01:42:23;;;;;;;0.00;0.00;;;;;;;;;;5047739;28;20240;-68
2022/09/14 01:44:52;;;;;;;0.10;0.10;;;;;;;;;;5042463;28;20196;-68
2022/09/14 01:47:25;;;;;;;0.10;0.10;;;;;;;;;;5047770;28;20436;-68
2022/09/14 01:49:53;;;;;;;0.10;0.10;;;;;;;;;;5042486;28;20193;-68
2022/09/14 01:52:23;;;;;;;0.10;0.10;;;;;;;;;;5047890;28;20247;-68
2022/09/14 01:54:52;;;;;;;0.00;0.00;;;;;;;;;;5042091;28;20277;-68
2022/09/14 01:57:21;;;;;;;0.10;0.10;;;;;;;;;;5047391;28;20259;-68
2022/09/14 01:59:49;;;;;;;0.00;0.00;;;;;;;;;;5041878;28;20290;-68
2022/09/14 02:02:16;;;;;;;0.10;0.10;;;;;;;;;;5047529;28;20263;-67
2022/09/14 02:04:47;;;;;;;0.10;0.10;;;;;;;;;;5042175;28;20240;-68
2022/09/14 02:07:13;;;;;;;0.10;0.10;;;;;;;;;;5047267;28;20254;-67
2022/09/14 02:09:40;;;;;;;0.10;0.10;;;;;;;;;;5041914;28;20239;-67
2022/09/14 02:12:07;;;;;;;0.10;0.10;;;;;;;;;;5047561;28;20321;-68
2022/09/14 02:14:33;;;;;;;0.10;0.10;;;;;;;;;;5041786;28;20256;-68
2022/09/14 02:17:00;;;;;;;0.10;0.10;;;;;;;;;;5046581;28;20374;-67
2022/09/14 02:19:28;;;;;;;0.10;0.10;;;;;;;;;;5042486;28;20384;-68
2022/09/14 02:21:56;;;;;;;0.10;0.10;;;;;;;;;;5049086;28;20253;-68
2022/09/14 02:24:23;;;;;;;0.10;0.10;;;;;;;;;;5047079;28;20385;-69
2022/09/14 02:26:50;;;;;;;0.00;0.00;;;;;;;;;;5048657;28;22324;-68
2022/09/14 02:29:16;;;;;;;0.10;0.10;;;;;;;;;;5047335;28;20244;-68
2022/09/14 02:31:48;;;;;;;0.00;0.00;;;;;;;;;;5047749;28;20239;-68
2022/09/14 02:34:24;;;;;;;0.08;0.08;;;;;;;;;;5047643;28;20216;-68
2022/09/14 02:36:54;;;;;;;0.10;0.10;;;;;;;;;;5048616;28;20246;-67
2022/09/14 02:39:25;;;;;;;0.10;0.10;;;;;;;;;;5046497;28;20208;-68
2022/09/14 02:41:57;;;;;;;0.10;0.10;;;;;;;;;;5049145;28;20240;-67
2022/09/14 02:44:30;;;;;;;0.10;0.10;;;;;;;;;;5046068;28;20196;-68
2022/09/14 02:47:00;;;;;;;0.10;0.10;;;;;;;;;;5049441;28;20258;-68
2022/09/14 02:49:30;;;;;;;0.10;0.10;;;;;;;;;;5045441;28;20196;-68
2022/09/14 02:51:58;;;;;;;0.10;0.10;;;;;;;;;;5049339;28;20242;-67
2022/09/14 02:54:29;;;;;;;0.10;0.10;;;;;;;;;;5045626;28;20210;-68
2022/09/14 02:56:59;;;;;;;0.03;0.03;;;;;;;;;;5048823;28;20323;-68
2022/09/14 02:59:25;;;;;;;0.10;0.10;;;;;;;;;;5045252;28;20274;-67
2022/09/14 03:01:52;;;;;;;0.10;0.10;;;;;;;;;;5048395;28;20239;-68
2022/09/14 03:04:18;;;;;;;0.10;0.10;;;;;;;;;;5046522;28;20273;-67
2022/09/14 03:06:45;;;;;;;0.00;0.00;;;;;;;;;;5047443;28;20354;-67
2022/09/14 03:09:11;;;;;;;0.10;0.10;;;;;;;;;;5047146;28;20274;-67
2022/09/14 03:11:39;;;;;;;0.10;0.10;;;;;;;;;;5046067;28;20241;-67
2022/09/14 03:14:05;;;;;;;0.10;0.10;;;;;;;;;;5047999;28;20371;-68
2022/09/14 03:16:32;;;;;;;0.10;0.10;;;;;;;;;;5045400;28;20247;-68
2022/09/14 03:18:58;;;;;;;0.10;0.10;;;;;;;;;;5048625;28;20208;-67
2022/09/14 03:21:25;;;;;;;0.10;0.10;;;;;;;;;;5044470;28;20300;-67
2022/09/14 03:23:53;;;;;;;0.10;0.10;;;;;;;;;;5049463;28;20272;-67
2022/09/14 03:26:21;;;;;;;0.10;0.10;;;;;;;;;;5043689;28;20555;-67
2022/09/14 03:28:51;;;;;;;0.10;0.10;;;;;;;;;;5049907;28;20233;-67
2022/09/14 03:31:18;;;;;;;0.10;0.10;;;;;;;;;;5042789;28;20253;-68
2022/09/14 03:33:44;;;;;;;0.10;0.10;;;;;;;;;;5049635;28;20215;-68
2022/09/14 03:36:11;;;;;;;0.10;0.10;;;;;;;;;;5042320;28;20304;-68
2022/09/14 03:38:37;;;;;;;0.00;0.00;;;;;;;;;;5051119;28;20274;-68
2022/09/14 03:41:07;;;;;;;0.10;0.10;;;;;;;;;;5041420;28;20590;-67
2022/09/14 03:43:33;;;;;;;0.00;0.00;;;;;;;;;;5051495;28;20208;-68
2022/09/14 03:46:05;;;;;;;0.10;0.10;;;;;;;;;;5041206;28;20348;-67
2022/09/14 03:48:31;;;;;;;0.10;0.10;;;;;;;;;;5051726;28;20231;-68
2022/09/14 03:50:59;;;;;;;0.10;0.10;;;;;;;;;;5040658;28;20292;-67
2022/09/14 03:53:26;;;;;;;0.10;0.10;;;;;;;;;;5052313;28;20210;-67
2022/09/14 03:55:52;;;;;;;0.00;0.00;;;;;;;;;;5039293;28;20246;-67
2022/09/14 03:58:19;;;;;;;0.10;0.10;;;;;;;;;;5052823;28;20232;-68
2022/09/14 04:00:45;;;;;;;0.07;0.07;;;;;;;;;;5038662;28;20332;-68
2022/09/14 04:03:13;;;;;;;0.10;0.10;;;;;;;;;;5053400;28;20207;-67
2022/09/14 04:05:39;;;;;;;0.10;0.10;;;;;;;;;;5037086;28;20239;-67
2022/09/14 04:08:05;;;;;;;0.10;0.10;;;;;;;;;;5054940;28;20232;-69
2022/09/14 04:10:32;;;;;;;0.00;0.00;;;;;;;;;;5037097;28;20426;-67
2022/09/14 04:13:00;;;;;;;0.07;0.07;;;;;;;;;;5055347;28;20213;-68
2022/09/14 04:15:27;;;;;;;0.10;0.10;;;;;;;;;;5036301;28;20253;-68
2022/09/14 04:17:53;;;;;;;0.03;0.03;;;;;;;;;;5056116;28;20374;-68
2022/09/14 04:20:21;;;;;;;0.00;0.00;;;;;;;;;;5035445;28;20338;-68
2022/09/14 04:22:47;;;;;;;0.00;0.00;;;;;;;;;;5056777;28;20284;-68
2022/09/14 04:25:13;;;;;;;0.00;0.00;;;;;;;;;;5034311;28;20294;-67
2022/09/14 04:27:40;;;;;;;0.10;0.10;;;;;;;;;;5057549;28;20235;-68
2022/09/14 04:30:07;;;;;;;0.10;0.10;;;;;;;;;;5041657;28;20216;-69
2022/09/14 04:32:34;;;;;;;0.10;0.10;;;;;;;;;;5058328;28;20223;-68
2022/09/14 04:35:00;;;;;;;0.10;0.10;;;;;;;;;;5043240;28;20207;-68
2022/09/14 04:37:30;;;;;;;0.00;0.00;;;;;;;;;;5048554;28;20263;-69
2022/09/14 04:39:56;;;;;;;0.10;0.10;;;;;;;;;;5042731;28;20291;-67
2022/09/14 04:42:23;;;;;;;0.00;0.00;;;;;;;;;;5048071;28;20241;-68
2022/09/14 04:44:49;;;;;;;0.00;0.00;;;;;;;;;;5042481;28;20224;-68
2022/09/14 04:47:15;;;;;;;0.10;0.10;;;;;;;;;;5048342;28;20246;-68
2022/09/14 04:49:41;;;;;;;0.00;0.00;;;;;;;;;;5042615;28;20211;-67
2022/09/14 04:52:08;;;;;;;0.00;0.00;;;;;;;;;;5048168;28;20242;-68
2022/09/14 04:54:35;;;;;;;0.00;0.00;;;;;;;;;;5042386;28;20203;-68
2022/09/14 04:57:02;;;;;;;0.10;0.10;;;;;;;;;;5047394;28;20579;-67
2022/09/14 04:59:28;;;;;;;0.07;0.07;;;;;;;;;;5043221;28;20212;-69
2022/09/14 05:01:54;;;;;;;0.00;0.00;;;;;;;;;;5046696;28;20296;-68
2022/09/14 05:04:20;;;;;;;0.10;0.10;;;;;;;;;;5043782;28;20211;-68
2022/09/14 05:06:48;;;;;;;0.10;0.10;;;;;;;;;;5045654;28;20240;-69
2022/09/14 05:09:16;;;;;;;0.10;0.10;;;;;;;;;;5044401;28;20254;-69
2022/09/14 05:11:44;;;;;;;0.10;0.10;;;;;;;;;;5044823;28;20286;-68
2022/09/14 05:14:11;;;;;;;0.10;0.10;;;;;;;;;;5045211;28;20443;-67
2022/09/14 05:16:38;;;;;;;0.10;0.10;;;;;;;;;;5044134;28;20241;-67
2022/09/14 05:19:05;;;;;;;0.10;0.10;;;;;;;;;;5045537;28;20237;-67
2022/09/14 05:21:33;;;;;;;0.00;0.00;;;;;;;;;;5043288;28;20313;-68
2022/09/14 05:24:01;;;;;;;0.10;0.10;;;;;;;;;;5046254;28;20215;-68
2022/09/14 05:26:28;;;;;;;0.10;0.10;;;;;;;;;;5042548;28;20254;-68
2022/09/14 05:28:56;;;;;;;0.10;0.10;;;;;;;;;;5047168;28;20263;-68
2022/09/14 05:31:23;;;;;;;0.10;0.10;;;;;;;;;;5042327;28;20242;-68
2022/09/14 05:33:50;;;;;;;0.00;0.00;;;;;;;;;;5047737;28;20234;-67
2022/09/14 05:36:16;;;;;;;0.10;0.10;;;;;;;;;;5041543;28;20272;-68
2022/09/14 05:38:43;;;;;;;0.10;0.10;;;;;;;;;;5048312;28;20203;-69
2022/09/14 05:41:10;;;;;;;0.10;0.10;;;;;;;;;;5040349;28;20244;-67
2022/09/14 05:43:37;;;;;;;0.10;0.10;;;;;;;;;;5049382;28;20213;-68
2022/09/14 05:46:06;;;;;;;0.10;0.10;;;;;;;;;;5039741;28;20249;-67
2022/09/14 05:48:32;;;;;;;0.10;0.10;;;;;;;;;;5049365;28;20222;-69
2022/09/14 05:50:59;;;;;;;0.00;0.00;;;;;;;;;;5038784;28;20242;-67
2022/09/14 05:53:25;;;;;;;0.00;0.00;;;;;;;;;;5050329;28;20277;-67
2022/09/14 05:56:00;;;;;;;0.10;0.10;;;;;;;;;;5039962;28;20242;-68
2022/09/14 05:58:26;;;;;;;0.10;0.10;;;;;;;;;;5054195;28;20243;-69
2022/09/14 06:00:53;;;;;;;0.00;0.00;;;;;;;;;;5041028;28;20241;-68
2022/09/14 06:03:20;;;;;;;0.10;0.10;;;;;;;;;;5055938;28;20207;-67
2022/09/14 06:05:47;;;;;;;0.10;0.10;;;;;;;;;;5040824;28;20242;-68
2022/09/14 06:08:13;;;;;;;0.10;0.10;;;;;;;;;;5055804;28;20229;-68
2022/09/14 06:10:39;;;;;;;0.10;0.10;;;;;;;;;;5040106;28;20284;-67
2022/09/14 06:13:06;;;;;;;0.10;0.10;;;;;;;;;;5056456;28;20202;-67
2022/09/14 06:15:33;;;;;;;0.10;0.10;;;;;;;;;;5039054;28;20246;-68
2022/09/14 06:17:59;;;;;;;0.00;0.00;;;;;;;;;;5057535;28;20217;-67
2022/09/14 06:20:27;;;;;;;0.00;0.00;;;;;;;;;;5037992;28;20253;-68
2022/09/14 06:22:53;;;;;;;0.10;0.10;;;;;;;;;;5057800;28;20436;-68
2022/09/14 06:25:20;;;;;;;0.03;0.03;;;;;;;;;;5037150;28;20277;-69
2022/09/14 06:27:46;;;;;;;0.10;0.10;;;;;;;;;;5058911;28;20220;-69
2022/09/14 06:30:13;;;;;;;0.10;0.10;;;;;;;;;;5036420;28;20392;-67
2022/09/14 06:32:39;;;;;;;0.10;0.10;;;;;;;;;;5060358;28;20205;-68
2022/09/14 06:35:06;;;;;;;0.10;0.10;;;;;;;;;;5042139;28;20241;-68
2022/09/14 06:37:34;;;;;;;0.00;0.00;;;;;;;;;;5060324;28;20247;-68
2022/09/14 06:40:00;;;;;;;0.10;0.10;;;;;;;;;;5044899;28;20203;-67
2022/09/14 06:42:28;;;;;;;0.10;0.10;;;;;;;;;;5050579;28;20250;-69
2022/09/14 06:44:55;;;;;;;0.10;0.10;;;;;;;;;;5044988;28;20514;-69
2022/09/14 06:47:22;;;;;;;0.10;0.10;;;;;;;;;;5050601;28;20240;-67
2022/09/14 06:49:49;;;;;;;0.10;0.10;;;;;;;;;;5045040;28;20357;-67
2022/09/14 06:52:16;;;;;;;0.10;0.10;;;;;;;;;;5050478;28;20244;-67
2022/09/14 06:54:43;;;;;;;0.10;0.10;;;;;;;;;;5044949;28;20228;-68
2022/09/14 06:57:10;;;;;;;0.10;0.10;;;;;;;;;;5049900;28;20242;-68
2022/09/14 06:59:36;;;;;;;0.10;0.10;;;;;;;;;;5044613;28;20207;-68
2022/09/14 07:02:02;;;;;;;0.00;0.00;;;;;;;;;;5049809;28;20245;-68
2022/09/14 07:04:29;;;;;;;0.10;0.10;;;;;;;;;;5044955;28;20240;-68
2022/09/14 07:06:55;;;;;;;0.10;0.10;;;;;;;;;;5048518;28;20242;-67
2022/09/14 07:09:21;;;;;;;0.10;0.10;;;;;;;;;;5045793;28;20228;-69
2022/09/14 07:11:49;;;;;;;0.00;0.00;;;;;;;;;;5047076;28;20242;-76
2022/09/14 07:14:19;;;;;;;0.10;0.10;;;;;;;;;;5046360;28;20284;-76
2022/09/14 07:16:45;;;;;;;0.10;0.10;;;;;;;;;;5047308;28;20258;-75
2022/09/14 07:19:13;;;;;;;0.10;0.10;;;;;;;;;;5046784;28;20211;-76
2022/09/14 07:21:41;;;;;;;0.10;0.10;;;;;;;;;;5046346;28;20258;-75
2022/09/14 07:24:07;;;;;;;0.10;0.10;;;;;;;;;;5046961;28;20479;-74
2022/09/14 07:26:38;;;;;;;0.00;0.00;;;;;;;;;;5045710;28;20543;-75
2022/09/14 07:29:07;;;;;;;0.10;0.10;;;;;;;;;;5042806;28;20251;-76
2022/09/14 07:31:36;;;;;;;0.00;0.00;;;;;;;;;;5045112;28;20244;-75
2022/09/14 07:34:03;;;;;;;0.00;0.00;;;;;;;;;;5047725;28;20205;-76
2022/09/14 07:36:30;;;;;;;0.10;0.10;;;;;;;;;;5044045;28;20271;-75
2022/09/14 07:38:57;;;;;;;0.00;0.00;;;;;;;;;;5048421;28;20204;-75
2022/09/14 07:41:25;;;;;;;0.00;0.00;;;;;;;;;;5043921;28;20244;-75
2022/09/14 07:43:53;;;;;;;0.10;0.10;;;;;;;;;;5048436;28;20207;-74
2022/09/14 07:46:21;;;;;;;0.10;0.10;;;;;;;;;;5043631;28;20247;-75
2022/09/14 07:48:49;;;;;;;0.10;0.10;;;;;;;;;;5049287;28;20267;-75
2022/09/14 07:51:16;;;;;;;0.08;0.08;;;;;;;;;;5042892;28;20246;-75
2022/09/14 07:53:43;;;;;;;0.10;0.10;;;;;;;;;;5049961;28;20218;-74
2022/09/14 07:56:10;;;;;;;0.00;0.00;;;;;;;;;;5042187;28;20256;-77
2022/09/14 07:58:36;;;;;;;0.10;0.10;;;;;;;;;;5050890;28;20221;-76
2022/09/14 08:01:06;;;;;;;0.08;0.08;;;;;;;;;;5041117;28;20258;-77
2022/09/14 08:03:35;;;;;;;0.10;0.10;;;;;;;;;;5050909;28;20293;-77
2022/09/14 08:06:02;;;;;;;0.00;0.00;;;;;;;;;;5035461;28;20307;-76
2022/09/14 08:08:30;;;;;;;0.10;0.10;;;;;;;;;;5052179;28;20369;-76
2022/09/14 08:11:02;;;;;;;0.00;0.00;;;;;;;;;;5038261;28;20263;-76
2022/09/14 08:13:29;;;;;;;0.10;0.10;;;;;;;;;;5051157;28;20200;-77
2022/09/14 08:15:57;;;;;;;0.10;0.10;;;;;;;;;;5039757;28;20310;-76
2022/09/14 08:18:26;;;;;;;0.10;0.10;;;;;;;;;;5051096;28;20206;-75
2022/09/14 08:20:54;;;;;;;0.05;0.05;;;;;;;;;;5039331;28;20246;-77
2022/09/14 08:23:21;;;;;;;0.10;0.10;;;;;;;;;;5052327;28;20246;-76
2022/09/14 08:25:47;;;;;;;0.05;0.05;;;;;;;;;;5038509;28;20279;-77
2022/09/14 08:28:13;;;;;;;0.10;0.10;;;;;;;;;;5052517;28;20204;-75
2022/09/14 08:30:40;;;;;;;0.10;0.10;;;;;;;;;;5036011;28;20290;-76
2022/09/14 08:33:06;;;;;;;0.00;0.00;;;;;;;;;;5054094;28;20200;-78
2022/09/14 08:35:33;;;;;;;0.10;0.10;;;;;;;;;;5036453;28;20260;-76
2022/09/14 08:38:01;;;;;;;0.10;0.10;;;;;;;;;;5054538;28;20205;-76
2022/09/14 08:40:27;;;;;;;0.00;0.00;;;;;;;;;;5035412;28;20283;-76
2022/09/14 08:42:56;;;;;;;0.03;0.03;;;;;;;;;;5055466;28;20395;-77
2022/09/14 08:45:23;;;;;;;0.00;0.00;;;;;;;;;;5035000;28;20254;-76
2022/09/14 08:47:50;;;;;;;0.10;0.10;;;;;;;;;;5056157;28;20198;-76
2022/09/14 08:50:18;;;;;;;0.10;0.10;;;;;;;;;;5033766;28;20575;-77
2022/09/14 08:52:47;;;;;;;0.10;0.10;;;;;;;;;;5056583;28;20195;-78
2022/09/14 08:55:25;;;;;;;0.10;0.10;;;;;;;;;;5033859;28;20233;-77
2022/09/14 08:57:53;;;;;;;0.00;0.00;;;;;;;;;;5055445;28;20281;-76
2022/09/14 09:00:22;;;;;;;0.00;0.00;;;;;;;;;;5034563;28;20209;-76
2022/09/14 09:03:06;;;;;;;0.10;0.10;;;;;;;;;;5056045;28;20200;-76
2022/09/14 09:05:36;;;;;;;0.00;0.00;;;;;;;;;;5029289;28;20446;-75
2022/09/14 09:08:13;;;;;;;0.10;0.10;;;;;;;;;;5053879;28;20202;-76
2022/09/14 09:10:43;;;;;;;0.10;0.10;;;;;;;;;;5036921;28;20240;-76
2022/09/14 09:13:12;;;;;;;0.05;0.05;;;;;;;;;;5053093;28;20524;-75
2022/09/14 09:15:42;;;;;;;0.10;0.10;;;;;;;;;;5036684;28;20250;-76
2022/09/14 09:18:11;;;;;;;0.10;0.10;;;;;;;;;;5053292;28;20263;-76
2022/09/14 09:20:40;;;;;;;0.00;0.00;;;;;;;;;;5036514;28;20331;-75
2022/09/14 09:23:11;;;;;;;0.10;0.10;;;;;;;;;;5053308;28;20287;-76
2022/09/14 09:25:48;;;;;;;0.10;0.10;;;;;;;;;;5036225;28;20304;-76
2022/09/14 09:28:17;;;;;;;0.00;0.00;;;;;;;;;;5051849;28;20207;-76
2022/09/14 09:30:44;;;;;;;0.10;0.10;;;;;;;;;;5035963;28;20288;-76
2022/09/14 09:33:13;;;;;;;0.00;0.00;;;;;;;;;;5056577;28;20211;-76
2022/09/14 09:35:40;;;;;;;0.10;0.10;;;;;;;;;;5040509;28;20244;-76
2022/09/14 09:38:12;;;;;;;0.00;0.00;;;;;;;;;;5056974;28;20214;-75
2022/09/14 09:40:43;;;;;;;0.00;0.00;;;;;;;;;;5040409;28;20256;-75
2022/09/14 09:43:11;;;;;;;0.00;0.00;;;;;;;;;;5056295;28;20207;-76
2022/09/14 09:45:55;;;;;;;0.08;0.08;;;;;;;;;;5039921;28;20626;-76
2022/09/14 09:48:23;;;;;;;0.00;0.00;;;;;;;;;;5054184;28;20199;-76
2022/09/14 09:50:52;;;;;;;0.00;0.00;;;;;;;;;;5041239;28;20252;-76
2022/09/14 09:53:23;;;;;;;0.08;0.08;;;;;;;;;;5055087;28;20205;-77
2022/09/14 09:55:51;;;;;;;0.10;0.10;;;;;;;;;;5041369;28;20452;-76
2022/09/14 09:58:22;;;;;;;0.10;0.10;;;;;;;;;;5054944;28;20238;-76
2022/09/14 10:00:55;;;;;;;0.10;0.10;;;;;;;;;;5041041;28;20578;-76
2022/09/14 10:03:35;;;;;;;0.10;0.10;;;;;;;;;;5054801;28;20291;-77
2022/09/14 10:06:03;;;;;;;0.10;0.10;;;;;;;;;;5039833;28;20579;-75
2022/09/14 10:08:33;;;;;;;0.00;0.00;;;;;;;;;;5053729;28;20297;-75
2022/09/14 10:11:01;;;;;;;0.00;0.00;;;;;;;;;;5042447;28;20245;-78
2022/09/14 10:13:29;;;;;;;0.10;0.10;;;;;;;;;;5053673;28;20231;-77
2022/09/14 10:16:04;;;;;;;0.08;0.08;;;;;;;;;;5041711;28;20243;-76
2022/09/14 10:18:31;;;;;;;0.10;0.10;;;;;;;;;;5053302;28;20214;-74
2022/09/14 10:21:08;;;;;;;0.00;0.00;;;;;;;;;;5041882;28;20290;-76
2022/09/14 10:23:36;;;;;;;0.10;0.10;;;;;;;;;;5052462;28;20208;-77
2022/09/14 10:26:21;;;;;;;0.00;0.00;;;;;;;;;;5042294;28;20465;-76
2022/09/14 10:28:50;;;;;;;0.10;0.10;;;;;;;;;;5051098;28;20243;-75
2022/09/14 10:31:21;;;;;;;0.10;0.10;;;;;;;;;;5043353;28;20240;-76
2022/09/14 10:33:50;;;;;;;0.10;0.10;;;;;;;;;;5052574;28;20418;-76
2022/09/14 10:36:22;;;;;;;0.10;0.10;;;;;;;;;;5044675;28;20299;-75
2022/09/14 10:38:54;;;;;;;0.10;0.10;;;;;;;;;;5051148;28;20196;-76
2022/09/14 10:41:25;;;;;;;0.10;0.10;;;;;;;;;;5044830;28;20467;-76
2022/09/14 10:44:01;;;;;;;0.05;0.05;;;;;;;;;;5050606;28;20228;-76
2022/09/14 10:46:29;;;;;;;0.00;0.00;;;;;;;;;;5044917;28;20250;-74
2022/09/14 10:49:14;;;;;;;0.03;0.03;;;;;;;;;;5049501;28;20205;-75
2022/09/14 10:51:45;;;;;;;0.00;0.00;;;;;;;;;;5046421;28;20262;-75
2022/09/14 10:54:28;;;;;;;0.00;0.00;;;;;;;;;;5047514;28;20278;-74
2022/09/14 10:57:02;;;;;;;0.05;0.05;;;;;;;;;;5048308;28;20250;-75
2022/09/14 10:59:32;;;;;;;0.10;0.10;;;;;;;;;;5045096;28;20247;-75
2022/09/14 11:02:05;;;;;;;0.00;0.00;;;;;;;;;;5049168;28;20500;-75
2022/09/14 11:04:44;;;;;;;0.00;0.00;;;;;;;;;;5044601;28;20250;-74
2022/09/14 11:07:13;;;;;;;0.10;0.10;;;;;;;;;;5049317;28;20521;-75
2022/09/14 11:09:44;;;;;;;0.10;0.10;;;;;;;;;;5044224;28;20229;-75
2022/09/14 11:12:13;;;;;;;0.08;0.08;;;;;;;;;;5049897;28;20366;-75
2022/09/14 11:17:46;;;;;;;0.10;0.10;;;;;;;;;;5100210;27;20542;-75
2022/09/14 11:20:19;;;;;;;0.00;0.00;;;;;;;;;;5088467;28;20204;-75
2022/09/14 11:22:49;;;;;;;0.00;0.00;;;;;;;;;;5073409;28;20682;-76
2022/09/14 11:25:18;;;;;;;0.10;0.10;;;;;;;;;;5050319;28;20215;-74
2022/09/14 11:27:48;;;;;;;0.10;0.10;;;;;;;;;;5073201;28;20387;-76
2022/09/14 11:30:23;;;;;;;0.00;0.00;;;;;;;;;;5050443;28;20202;-75
2022/09/14 11:32:57;;;;;;;0.00;0.00;;;;;;;;;;5072282;28;20424;-76
2022/09/14 11:35:24;;;;;;;0.00;0.00;;;;;;;;;;5051365;28;20194;-74
2022/09/14 11:37:53;;;;;;;0.05;0.05;;;;;;;;;;5072377;28;20205;-75
2022/09/14 11:40:24;;;;;;;0.08;0.08;;;;;;;;;;5050921;28;20246;-75
2022/09/14 11:42:52;;;;;;;0.10;0.10;;;;;;;;;;5072080;28;20197;-75
2022/09/14 11:45:21;;;;;;;0.00;0.00;;;;;;;;;;5050346;28;20207;-75
2022/09/14 11:47:54;;;;;;;0.10;0.10;;;;;;;;;;5072631;28;20207;-76
2022/09/14 11:50:23;;;;;;;0.10;0.10;;;;;;;;;;5050740;28;20367;-76
2022/09/14 11:52:55;;;;;;;0.10;0.10;;;;;;;;;;5072236;28;20500;-75
2022/09/14 11:55:22;;;;;;;0.00;0.00;;;;;;;;;;5050415;28;20209;-76
2022/09/14 11:57:48;;;;;;;0.05;0.05;;;;;;;;;;5057645;28;20227;-75
2022/09/14 12:00:37;;;;;;;0.00;0.00;;;;;;;;;;5049643;28;20426;-75
2022/09/14 12:03:14;;;;;;;0.10;0.10;;;;;;;;;;5070019;28;20395;-75
2022/09/14 12:05:43;;;;;;;0.10;0.10;;;;;;;;;;5053465;28;20395;-75
2022/09/14 12:08:34;;;;;;;0.00;0.00;;;;;;;;;;5069358;28;20200;-74
2022/09/14 12:11:02;;;;;;;0.10;0.10;;;;;;;;;;5012794;28;20253;-75
2022/09/14 12:13:30;;;;;;;0.00;0.00;;;;;;;;;;5066882;28;20239;-75
2022/09/14 12:16:04;;;;;;;0.10;0.10;;;;;;;;;;5055201;28;20239;-76
2022/09/14 12:18:32;;;;;;;0.05;0.05;;;;;;;;;;5066811;28;20238;-76
2022/09/14 12:21:06;;;;;;;0.00;0.00;;;;;;;;;;5055450;28;20435;-76
2022/09/14 12:23:44;;;;;;;0.10;0.10;;;;;;;;;;5066317;28;20201;-75
2022/09/14 12:26:25;;;;;;;0.00;0.00;;;;;;;;;;5056904;28;20241;-75
2022/09/14 12:28:54;;;;;;;0.00;0.00;;;;;;;;;;5051709;28;20221;-75
2022/09/14 12:31:33;;;;;;;0.00;0.00;;;;;;;;;;5045093;28;20483;-75
2022/09/14 12:34:24;;;;;;;0.08;0.08;;;;;;;;;;5049196;28;20211;-75
2022/09/14 12:36:59;;;;;;;0.00;0.00;;;;;;;;;;5048576;28;20241;-75
2022/09/14 12:39:27;;;;;;;0.00;0.00;;;;;;;;;;5045722;28;20251;-75
2022/09/14 12:42:11;;;;;;;0.00;0.00;;;;;;;;;;5048853;28;20243;-75
2022/09/14 12:44:39;;;;;;;0.00;0.00;;;;;;;;;;5045218;28;20241;-75
2022/09/14 12:47:24;;;;;;;0.00;0.00;;;;;;;;;;5050103;28;20416;-75
2022/09/14 12:49:51;;;;;;;0.10;0.10;;;;;;;;;;5045424;28;20218;-75
2022/09/14 12:52:32;;;;;;;0.10;0.10;;;;;;;;;;5050189;28;20515;-75
2022/09/14 12:55:03;;;;;;;0.00;0.00;;;;;;;;;;5045146;28;20232;-74
2022/09/14 12:57:33;;;;;;;0.00;0.00;;;;;;;;;;5050209;28;20255;-74
2022/09/14 13:00:03;;;;;;;0.08;0.08;;;;;;;;;;5044908;28;20208;-75
2022/09/14 13:03:00;;;;;;;0.10;0.10;;;;;;;;;;5033145;28;20384;-74
2022/09/14 13:05:28;;;;;;;0.00;0.00;;;;;;;;;;5012782;28;20284;-75
2022/09/14 13:07:56;;;;;;;0.00;0.00;;;;;;;;;;5047464;28;20239;-74
2022/09/14 13:10:25;;;;;;;0.00;0.00;;;;;;;;;;5036701;28;20467;-74
2022/09/14 13:12:51;;;;;;;0.00;0.00;;;;;;;;;;5057920;28;20264;-74
2022/09/14 13:15:20;;;;;;;0.00;0.00;;;;;;;;;;5036137;28;20195;-75
2022/09/14 13:17:57;;;;;;;0.00;0.00;;;;;;;;;;5057732;28;20500;-74
2022/09/14 13:20:23;;;;;;;0.10;0.10;;;;;;;;;;5036748;28;20215;-72
2022/09/14 13:22:50;;;;;;;0.00;0.00;;;;;;;;;;5043028;28;20233;-74
2022/09/14 13:25:26;;;;;;;0.00;0.00;;;;;;;;;;5035429;28;20219;-74
2022/09/14 13:27:53;;;;;;;0.00;0.00;;;;;;;;;;5057315;28;20438;-72
2022/09/14 13:30:20;;;;;;;0.00;0.00;;;;;;;;;;5035920;28;20280;-74
2022/09/14 13:32:49;;;;;;;0.05;0.05;;;;;;;;;;5057568;28;20200;-74
2022/09/14 13:35:16;;;;;;;0.00;0.00;;;;;;;;;;5035310;28;20213;-75
2022/09/14 13:37:43;;;;;;;0.10;0.10;;;;;;;;;;5057594;28;20203;-74
2022/09/14 13:40:10;;;;;;;0.00;0.00;;;;;;;;;;5033201;28;20283;-75
2022/09/14 13:42:37;;;;;;;0.03;0.03;;;;;;;;;;5058469;28;20200;-74
2022/09/14 13:45:04;;;;;;;0.00;0.00;;;;;;;;;;5043984;28;20278;-75
2022/09/14 13:47:31;;;;;;;0.10;0.10;;;;;;;;;;5032322;28;20232;-74
2022/09/14 13:49:59;;;;;;;0.00;0.00;;;;;;;;;;5043945;28;20212;-75
2022/09/14 13:52:30;;;;;;;0.10;0.10;;;;;;;;;;5048921;28;20311;-74
2022/09/14 13:55:10;;;;;;;0.00;0.00;;;;;;;;;;5043931;28;20283;-75
2022/09/14 13:57:37;;;;;;;0.00;0.00;;;;;;;;;;5032217;28;20414;-74
2022/09/14 14:00:06;;;;;;;0.00;0.00;;;;;;;;;;5043871;28;20211;-74
2022/09/14 14:02:33;;;;;;;0.00;0.00;;;;;;;;;;5032008;28;20212;-73
2022/09/14 14:05:00;;;;;;;0.10;0.10;;;;;;;;;;5043490;28;20213;-73
2022/09/14 14:07:32;;;;;;;0.00;0.00;;;;;;;;;;5048327;28;20250;-74
2022/09/14 14:09:59;;;;;;;0.00;0.00;;;;;;;;;;5043342;28;20206;-73
2022/09/14 14:12:27;;;;;;;0.00;0.00;;;;;;;;;;5048458;28;20239;-74
2022/09/14 14:14:57;;;;;;;0.05;0.05;;;;;;;;;;5043405;28;20212;-74
2022/09/14 14:17:24;;;;;;;0.00;0.00;;;;;;;;;;5048237;28;20242;-73
2022/09/14 14:19:52;;;;;;;0.05;0.05;;;;;;;;;;5043290;28;20200;-73
2022/09/14 14:22:19;;;;;;;0.03;0.03;;;;;;;;;;5048218;28;20292;-73
2022/09/14 14:24:47;;;;;;;0.00;0.00;;;;;;;;;;5043202;28;20223;-74
2022/09/14 14:27:27;;;;;;;0.10;0.10;;;;;;;;;;5048408;28;20242;-73
2022/09/14 14:29:54;;;;;;;0.00;0.00;;;;;;;;;;5043398;28;20272;-75
2022/09/14 14:32:21;;;;;;;0.00;0.00;;;;;;;;;;5048371;28;20254;-74
2022/09/14 14:34:48;;;;;;;0.08;0.08;;;;;;;;;;5043102;28;20209;-73
2022/09/14 14:37:14;;;;;;;0.10;0.10;;;;;;;;;;5048325;28;20308;-73
2022/09/14 14:39:43;;;;;;;0.10;0.10;;;;;;;;;;5042859;28;20208;-73
2022/09/14 14:42:09;;;;;;;0.00;0.00;;;;;;;;;;5048108;28;20579;-73
2022/09/14 14:44:36;;;;;;;0.05;0.05;;;;;;;;;;5043095;28;20549;-73
2022/09/14 14:47:02;;;;;;;0.05;0.05;;;;;;;;;;5047655;28;20338;-73
2022/09/14 14:49:30;;;;;;;0.00;0.00;;;;;;;;;;5043235;28;20379;-74
2022/09/14 14:51:56;;;;;;;0.00;0.00;;;;;;;;;;5046417;28;20305;-72
2022/09/14 14:54:23;;;;;;;0.00;0.00;;;;;;;;;;5043328;28;20277;-73
2022/09/14 14:56:50;;;;;;;0.10;0.10;;;;;;;;;;5045401;28;20312;-75